createdAt,value
2022-10-01T08:47:50.342Z,40.75
2022-10-01T08:50:30.030Z,71.75
2022-10-01T08:53:02.916Z,38.13
2022-10-01T08:55:36.634Z,30.92
2022-10-01T08:58:07.128Z,36.70
2022-10-01T09:00:40.165Z,37.13
2022-10-01T09:03:14.697Z,36.58
2022-10-01T09:05:55.262Z,42.08
2022-10-01T09:08:44.713Z,36.13
2022-10-01T09:11:25.002Z,42.00
2022-10-01T09:14:15.137Z,42.72
2022-10-01T09:16:53.500Z,46.83
2022-10-01T09:19:46.080Z,43.92
2022-10-01T09:22:26.299Z,50.45
2022-10-01T09:25:02.644Z,44.30
2022-10-01T09:30:04.037Z,45.40
2022-10-01T09:32:38.038Z,44.35
2022-10-01T09:35:22.232Z,43.53
2022-10-01T09:37:56.194Z,49.97
2022-10-01T09:40:34.720Z,42.60
2022-10-01T09:43:03.922Z,44.30
2022-10-01T09:45:32.653Z,45.70
2022-10-01T09:48:15.810Z,40.03
2022-10-01T09:50:59.147Z,43.22
2022-10-01T09:53:34.964Z,47.47
2022-10-01T09:56:11.615Z,43.85
2022-10-01T09:58:43.463Z,44.03
2022-10-01T10:01:21.950Z,42.28
2022-10-01T10:03:58.249Z,44.92
2022-10-01T10:06:33.115Z,48.90
2022-10-01T10:09:03.342Z,47.65
2022-10-01T10:11:33.449Z,40.67
2022-10-01T10:14:04.698Z,43.85
2022-10-01T10:16:36.076Z,47.80
2022-10-01T10:19:09.750Z,42.88
2022-10-01T10:21:39.492Z,39.50
2022-10-01T10:24:24.582Z,42.42
2022-10-01T10:26:56.311Z,40.83
2022-10-01T10:29:31.145Z,42.13
2022-10-01T10:32:00.884Z,44.92
2022-10-01T10:34:33.956Z,39.88
2022-10-01T10:37:07.313Z,35.67
2022-10-01T10:39:38.866Z,38.67
2022-10-01T10:42:08.818Z,45.08
2022-10-01T10:44:40.275Z,37.25
2022-10-01T10:47:11.863Z,45.33
2022-10-01T10:49:46.346Z,37.60
2022-10-01T10:52:30.123Z,52.85
2022-10-01T10:55:00.583Z,44.42
2022-10-01T10:57:31.050Z,40.03
2022-10-01T11:00:01.602Z,38.35
2022-10-01T11:02:33.830Z,48.83
2022-10-01T11:05:06.879Z,42.35
2022-10-01T11:07:36.773Z,37.97
2022-10-01T11:10:24.886Z,35.30
2022-10-01T11:13:18.716Z,35.33
2022-10-01T11:16:19.766Z,39.40
2022-10-01T11:18:58.554Z,36.30
2022-10-01T11:21:40.587Z,35.90
2022-10-01T11:24:26.867Z,37.38
2022-10-01T11:26:59.325Z,33.22
2022-10-01T11:29:43.211Z,31.63
2022-10-01T11:32:23.527Z,30.23
2022-10-01T11:35:05.669Z,30.02
2022-10-01T11:37:50.739Z,31.92
2022-10-01T11:40:25.699Z,33.03
2022-10-01T11:42:58.541Z,30.42
2022-10-01T11:45:33.160Z,32.13
2022-10-01T11:48:06.451Z,26.92
2022-10-01T11:50:42.004Z,29.85
2022-10-01T11:53:16.806Z,26.30
2022-10-01T11:56:10.575Z,29.05
2022-10-01T11:58:53.217Z,24.02
2022-10-01T12:01:31.421Z,27.90
2022-10-01T12:04:07.549Z,24.60
2022-10-01T12:06:41.978Z,22.25
2022-10-01T12:09:18.820Z,24.02
2022-10-01T12:11:55.737Z,19.00
2022-10-01T12:16:59.716Z,17.48
2022-10-01T12:19:32.469Z,16.73
2022-10-01T12:22:08.317Z,16.77
2022-10-01T12:24:41.367Z,18.70
2022-10-01T12:27:40.031Z,19.25
2022-10-01T12:30:13.901Z,16.40
2022-10-01T12:32:58.193Z,17.30
2022-10-01T12:35:39.984Z,15.48
2022-10-01T12:38:18.790Z,12.48
2022-10-01T12:40:52.501Z,16.05
2022-10-01T12:43:39.498Z,13.13
2022-10-01T12:46:17.506Z,13.00
2022-10-01T12:48:58.211Z,14.27
2022-10-01T12:51:40.246Z,16.75
2022-10-01T12:54:37.706Z,12.10
2022-10-01T12:57:19.865Z,13.02
2022-10-01T13:00:03.918Z,14.05
2022-10-01T13:03:14.334Z,12.82
2022-10-01T13:05:57.980Z,12.98
2022-10-01T13:08:40.130Z,12.65
2022-10-01T13:11:25.483Z,16.60
2022-10-01T13:13:55.997Z,15.65
2022-10-01T13:16:33.758Z,17.17
2022-10-01T13:19:08.439Z,23.45
2022-10-01T13:21:53.820Z,16.50
2022-10-01T13:24:30.990Z,19.85
2022-10-01T13:27:03.640Z,16.83
2022-10-01T13:29:48.198Z,18.35
2022-10-01T13:32:30.517Z,20.27
2022-10-01T13:35:01.057Z,22.30
2022-10-01T13:37:35.848Z,22.27
2022-10-01T13:40:05.929Z,25.17
2022-10-01T13:42:43.511Z,21.58
2022-10-01T13:45:25.700Z,27.67
2022-10-01T13:48:05.922Z,19.63
2022-10-01T13:50:34.659Z,20.38
2022-10-01T13:53:09.585Z,23.65
2022-10-01T13:55:43.071Z,20.38
2022-10-01T13:58:24.310Z,22.38
2022-10-01T14:00:54.546Z,22.83
2022-10-01T14:03:39.136Z,19.27
2022-10-01T14:06:10.144Z,16.17
2022-10-01T14:08:44.138Z,15.98
2022-10-01T14:11:34.429Z,16.02
2022-10-01T14:14:30.273Z,18.58
2022-10-01T14:17:01.587Z,16.65
2022-10-01T14:19:32.432Z,14.98
2022-10-01T14:22:15.446Z,12.77
2022-10-01T14:25:01.904Z,14.35
2022-10-01T14:27:38.328Z,14.57
2022-10-01T14:30:12.215Z,13.30
2022-10-01T14:32:58.248Z,15.35
2022-10-01T14:35:36.721Z,12.32
2022-10-01T14:38:12.996Z,15.88
2022-10-01T14:40:43.624Z,15.20
2022-10-01T14:43:19.442Z,13.57
2022-10-01T14:45:56.423Z,14.40
2022-10-01T14:48:26.183Z,10.02
2022-10-01T14:50:58.271Z,10.82
2022-10-01T14:53:29.592Z,12.30
2022-10-01T14:56:02.926Z,11.45
2022-10-01T14:58:35.255Z,12.07
2022-10-01T15:01:03.667Z,14.40
2022-10-01T15:03:39.421Z,14.65
2022-10-01T15:06:13.921Z,15.25
2022-10-01T15:08:44.146Z,12.75
2022-10-01T15:11:17.600Z,8.57
2022-10-01T15:13:48.257Z,12.98
2022-10-01T15:16:19.339Z,12.48
2022-10-01T15:18:53.467Z,14.40
2022-10-01T15:21:28.389Z,14.60
2022-10-01T15:23:58.088Z,12.60
2022-10-01T15:26:29.884Z,13.63
2022-10-01T15:29:05.963Z,13.40
2022-10-01T15:31:35.452Z,16.83
2022-10-01T15:34:04.766Z,16.23
2022-10-01T15:36:37.303Z,14.57
2022-10-01T15:39:22.949Z,18.85
2022-10-01T15:41:52.972Z,16.33
2022-10-01T15:44:41.151Z,16.73
2022-10-01T15:47:26.587Z,22.42
2022-10-01T15:50:07.882Z,19.35
2022-10-01T15:52:52.564Z,23.75
2022-10-01T15:55:25.068Z,21.33
2022-10-01T15:57:57.414Z,19.33
2022-10-01T16:00:28.029Z,23.52
2022-10-01T16:02:58.517Z,21.85
2022-10-01T16:05:30.604Z,21.20
2022-10-01T16:08:00.443Z,32.30
2022-10-01T16:10:37.473Z,26.27
2022-10-01T16:13:30.686Z,28.40
2022-10-01T16:16:09.089Z,29.83
2022-10-01T16:18:38.545Z,33.00
2022-10-01T16:21:09.281Z,36.60
2022-10-01T16:23:42.979Z,28.38
2022-10-01T16:26:47.123Z,28.42
2022-10-01T16:29:23.381Z,30.50
2022-10-01T16:31:52.141Z,31.27
2022-10-01T16:34:21.846Z,35.20
2022-10-01T16:36:50.410Z,38.65
2022-10-01T16:39:20.145Z,32.60
2022-10-01T16:42:01.670Z,33.08
2022-10-01T16:44:39.480Z,35.90
2022-10-01T16:47:07.781Z,34.08
2022-10-01T16:49:36.161Z,37.00
2022-10-01T16:52:04.912Z,27.52
2022-10-01T16:54:35.317Z,31.50
2022-10-01T16:57:03.669Z,36.50
2022-10-01T16:59:33.933Z,31.52
2022-10-01T17:02:02.520Z,27.13
2022-10-01T17:04:34.092Z,30.00
2022-10-01T17:07:02.945Z,26.02
2022-10-01T17:09:31.420Z,29.55
2022-10-01T17:12:01.928Z,30.48
2022-10-01T17:14:30.406Z,30.48
2022-10-01T17:16:58.801Z,32.33
2022-10-01T17:19:27.195Z,30.77
2022-10-01T17:21:55.990Z,28.27
2022-10-01T17:24:24.434Z,33.63
2022-10-01T17:26:52.879Z,32.00
2022-10-01T17:29:22.602Z,31.23
2022-10-01T17:31:53.436Z,28.40
2022-10-01T17:34:22.180Z,25.45
2022-10-01T17:36:50.489Z,28.58
2022-10-01T17:39:18.811Z,32.65
2022-10-01T17:41:47.314Z,26.30
2022-10-01T17:44:15.808Z,27.42
2022-10-01T17:46:45.561Z,32.80
2022-10-01T17:49:14.740Z,30.38
2022-10-01T17:51:43.065Z,34.30
2022-10-01T17:54:11.504Z,33.42
2022-10-01T17:56:42.024Z,39.40
2022-10-01T17:59:10.380Z,28.75
2022-10-01T18:01:41.730Z,31.27
2022-10-01T18:04:13.160Z,25.95
2022-10-01T18:06:43.860Z,26.27
2022-10-01T18:09:12.210Z,30.92
2022-10-01T18:11:40.787Z,28.70
2022-10-01T18:14:09.165Z,29.88
2022-10-01T18:16:38.006Z,25.77
2022-10-01T18:21:57.078Z,26.58
2022-10-01T18:24:26.168Z,26.65
2022-10-01T18:26:54.758Z,26.10
2022-10-01T18:29:25.282Z,24.48
2022-10-01T18:31:56.083Z,27.42
2022-10-01T18:34:32.660Z,25.33
2022-10-01T18:37:07.461Z,28.38
2022-10-01T18:39:41.952Z,33.58
2022-10-01T18:42:19.612Z,30.10
2022-10-01T18:44:53.443Z,30.13
2022-10-01T18:47:32.602Z,26.80
2022-10-01T18:50:33.102Z,28.02
2022-10-01T18:53:20.292Z,31.73
2022-10-01T18:56:11.601Z,33.25
2022-10-01T18:59:01.256Z,25.88
2022-10-01T19:01:41.728Z,25.50
2022-10-01T19:04:37.469Z,22.63
2022-10-01T19:07:22.484Z,19.35
2022-10-01T19:10:05.851Z,21.55
2022-10-01T19:12:49.020Z,22.38
2022-10-01T19:15:27.136Z,20.48
2022-10-01T19:18:07.007Z,19.88
2022-10-01T19:20:55.226Z,19.73
2022-10-01T19:23:41.767Z,18.73
2022-10-01T19:26:17.905Z,19.90
2022-10-01T19:29:00.654Z,19.15
2022-10-01T19:31:40.424Z,13.27
2022-10-01T19:34:14.135Z,15.38
2022-10-01T19:36:51.576Z,10.65
2022-10-01T19:39:24.123Z,22.42
2022-10-01T19:41:58.707Z,10.00
2022-10-01T19:44:33.090Z,8.65
2022-10-01T19:47:15.888Z,8.30
2022-10-01T19:49:46.381Z,8.85
2022-10-01T19:52:18.319Z,8.75
2022-10-01T19:54:52.769Z,7.57
2022-10-01T19:57:25.836Z,7.68
2022-10-01T19:59:57.084Z,8.45
2022-10-01T20:02:35.369Z,7.65
2022-10-01T20:05:07.198Z,7.65
2022-10-01T20:07:43.413Z,9.73
2022-10-01T20:10:20.724Z,9.50
2022-10-01T20:13:03.903Z,10.10
2022-10-01T20:15:43.695Z,9.45
2022-10-01T20:18:27.991Z,10.15
2022-10-01T20:21:15.327Z,11.05
2022-10-01T20:23:50.328Z,13.02
2022-10-01T20:26:26.832Z,10.65
2022-10-01T20:29:13.566Z,11.63
2022-10-01T20:31:48.931Z,11.27
2022-10-01T20:34:27.583Z,14.10
2022-10-01T20:37:09.675Z,12.88
2022-10-01T20:39:42.990Z,14.07
2022-10-01T20:42:18.993Z,17.85
2022-10-01T20:44:49.109Z,14.77
2022-10-01T20:47:24.874Z,17.55
2022-10-01T20:50:04.785Z,13.35
2022-10-01T20:52:42.654Z,15.05
2022-10-01T20:55:15.747Z,12.88
2022-10-01T20:57:50.533Z,13.20
2022-10-01T21:00:23.423Z,17.40
2022-10-01T21:02:58.487Z,14.20
2022-10-01T21:05:30.578Z,14.18
2022-10-01T21:08:04.437Z,13.93
2022-10-01T21:10:39.826Z,11.73
2022-10-01T21:13:16.091Z,12.68
2022-10-01T21:15:56.202Z,13.90
2022-10-01T21:18:35.561Z,10.23
2022-10-01T21:21:16.517Z,9.77
2022-10-01T21:24:03.049Z,9.88
2022-10-01T21:26:41.541Z,14.00
2022-10-01T21:29:26.722Z,7.90
2022-10-01T21:32:12.729Z,9.75
2022-10-01T21:34:58.166Z,8.60
2022-10-01T21:37:32.641Z,9.25
2022-10-01T21:40:08.913Z,9.90
2022-10-01T21:42:50.531Z,10.38
2022-10-01T21:45:29.045Z,9.50
2022-10-01T21:48:16.275Z,10.10
2022-10-01T21:50:53.101Z,8.43
2022-10-01T21:53:41.181Z,8.73
2022-10-01T21:56:37.570Z,10.20
2022-10-01T21:59:11.784Z,8.55
2022-10-01T22:02:01.758Z,10.60
2022-10-01T22:04:39.982Z,8.98
2022-10-01T22:07:18.116Z,6.85
2022-10-01T22:09:58.206Z,6.72
2022-10-01T22:12:28.862Z,6.30
2022-10-01T22:14:59.362Z,7.10
2022-10-01T22:17:32.640Z,7.80
2022-10-01T22:20:06.459Z,12.93
2022-10-01T22:22:38.893Z,9.63
2022-10-01T22:25:09.865Z,8.18
2022-10-01T22:27:44.351Z,7.63
2022-10-01T22:30:17.137Z,9.05
2022-10-01T22:32:50.315Z,7.85
2022-10-01T22:35:26.082Z,7.20
2022-10-01T22:37:59.978Z,5.93
2022-10-01T22:40:33.650Z,7.20
2022-10-01T22:43:07.041Z,7.00
2022-10-01T22:45:50.517Z,6.57
2022-10-01T22:48:35.344Z,8.13
2022-10-01T22:51:22.826Z,5.68
2022-10-01T22:56:39.208Z,6.10
2022-10-01T22:59:17.707Z,5.90
2022-10-01T23:01:57.027Z,7.10
2022-10-01T23:04:39.100Z,5.88
2022-10-01T23:07:17.845Z,5.93
2022-10-01T23:09:52.056Z,8.55
2022-10-01T23:12:26.816Z,5.05
2022-10-01T23:15:05.719Z,4.45
2022-10-01T23:17:41.522Z,4.38
2022-10-01T23:20:22.788Z,5.60
2022-10-01T23:23:20.147Z,5.30
2022-10-01T23:26:10.385Z,10.80
2022-10-01T23:28:50.305Z,5.95
2022-10-01T23:31:32.867Z,6.05
2022-10-01T23:34:14.183Z,4.47
2022-10-01T23:36:48.198Z,5.70
2022-10-01T23:39:46.552Z,5.85
2022-10-01T23:42:34.620Z,4.63
2022-10-01T23:45:17.438Z,4.93
2022-10-01T23:47:51.342Z,6.22
2022-10-01T23:50:24.739Z,5.22
2022-10-01T23:53:03.137Z,5.13
2022-10-01T23:56:01.377Z,4.38
2022-10-01T23:58:34.670Z,5.13
